Terminal Aerodrome Forecast
Issued by NWS

Home | Current Version | Previous Version | Text Only | Print | Product List | Glossary On
Versions: 1 2 3 4 5 6 7 8 9 10 11 12 13 14 15 16 17
000
FTUS41 KALY 310537
TAFPSF
TAF
KPSF 310537Z 3106/0106 24004KT P6SM FEW060
      TEMPO 3108/3110 2SM BR BKN004
     FM311400 28012G18KT P6SM SCT050
     FM312300 26005KT P6SM SKC
     FM010200 VRB02KT P6SM SCT250=

USA.gov is the U.S. government's official web portal to all federal, state and local government web resources and services.